createdAt,value
2023-04-08T00:00:40.648Z,18.27
2023-04-08T00:04:41.041Z,18.75
2023-04-08T00:08:40.502Z,15.98
2023-04-08T00:12:40.306Z,17.67
2023-04-08T00:16:40.477Z,16.83
2023-04-08T00:20:40.650Z,18.17
2023-04-08T00:24:40.580Z,14.47
2023-04-08T00:28:40.672Z,15.6
2023-04-08T00:32:40.463Z,14.63
2023-04-08T00:36:40.478Z,15.7
2023-04-08T00:40:40.589Z,16.37
2023-04-08T00:44:40.449Z,16.07
2023-04-08T00:48:40.564Z,15.9
2023-04-08T00:52:40.484Z,14.82
2023-04-08T00:56:40.543Z,14.97
2023-04-08T01:00:40.433Z,16.33
2023-04-08T01:04:40.872Z,15.7
2023-04-08T01:08:40.636Z,16.08
2023-04-08T01:12:40.592Z,15.27
2023-04-08T01:16:40.483Z,15.15
2023-04-08T01:20:40.960Z,16.02
2023-04-08T01:24:40.363Z,15.18
2023-04-08T01:28:40.526Z,14.4
2023-04-08T01:32:40.616Z,15.05
2023-04-08T01:36:40.509Z,15.65
2023-04-08T01:40:40.466Z,15.63
2023-04-08T01:44:40.542Z,17.15
2023-04-08T01:48:40.560Z,16.17
2023-04-08T01:52:40.409Z,17.27
2023-04-08T01:56:40.503Z,17.67
2023-04-08T02:00:40.595Z,16.87
2023-04-08T02:04:40.355Z,16.93
2023-04-08T02:08:40.363Z,18.02
2023-04-08T02:12:40.922Z,18.48
2023-04-08T02:16:40.802Z,16.87
2023-04-08T02:20:40.617Z,17.7
2023-04-08T02:24:40.570Z,18.73
2023-04-08T02:28:39.259Z,19.55
2023-04-08T02:32:40.756Z,19.77
2023-04-08T02:36:40.529Z,19.6
2023-04-08T02:40:40.863Z,21.23
2023-04-08T02:44:40.431Z,19.02
2023-04-08T02:48:39.569Z,21.73
2023-04-08T02:52:40.394Z,20.25
2023-04-08T02:56:39.505Z,21.4
2023-04-08T03:00:40.674Z,23.75
2023-04-08T03:04:40.883Z,25.02
2023-04-08T03:08:40.418Z,24.9
2023-04-08T03:12:39.257Z,25.5
2023-04-08T03:16:40.732Z,25.02
2023-04-08T03:20:41.231Z,27.92
2023-04-08T03:24:40.612Z,27.4
2023-04-08T03:28:40.485Z,28.67
2023-04-08T03:32:40.472Z,28.25
2023-04-08T03:36:40.333Z,31.2
2023-04-08T03:40:40.440Z,32.78
2023-04-08T03:44:40.513Z,29.3
2023-04-08T03:48:40.497Z,32
2023-04-08T03:52:40.804Z,30.77
2023-04-08T03:56:40.363Z,30.42
2023-04-08T04:00:40.611Z,29.92
2023-04-08T04:04:40.854Z,32.05
2023-04-08T04:08:40.558Z,32.22
2023-04-08T04:12:40.445Z,30.67
2023-04-08T04:16:39.227Z,31.05
2023-04-08T04:20:40.578Z,32.53
2023-04-08T04:24:40.548Z,33.35
2023-04-08T04:28:40.428Z,31.48
2023-04-08T04:32:40.279Z,31.7
2023-04-08T04:36:40.550Z,35.22
2023-04-08T04:40:40.927Z,32.67
2023-04-08T04:44:39.649Z,31.83
2023-04-08T04:48:39.640Z,32.1
2023-04-08T04:52:40.800Z,31.08
2023-04-08T04:56:40.464Z,32.72
2023-04-08T05:00:40.821Z,31.52
2023-04-08T05:04:40.510Z,30.6
2023-04-08T05:08:40.497Z,29.63
2023-04-08T05:12:39.355Z,30.05
2023-04-08T05:16:40.544Z,31.75
2023-04-08T05:20:40.742Z,29.92
2023-04-08T05:24:40.451Z,31
2023-04-08T05:28:40.581Z,31.75
2023-04-08T05:32:40.325Z,28.58
2023-04-08T05:36:40.293Z,31.23
2023-04-08T05:40:40.635Z,29.52
2023-04-08T05:44:40.873Z,31.35
2023-04-08T05:48:40.646Z,32.72
2023-04-08T05:52:40.114Z,29.55
2023-04-08T05:56:39.533Z,31
2023-04-08T06:00:40.979Z,30.75
2023-04-08T06:04:41.302Z,30.17
2023-04-08T06:08:40.423Z,32.05
2023-04-08T06:12:40.367Z,28.12
2023-04-08T06:16:41.041Z,31
2023-04-08T06:20:40.673Z,30.17
2023-04-08T06:24:40.481Z,31.42
2023-04-08T06:28:40.573Z,30.8
2023-04-08T06:32:40.354Z,29.4
2023-04-08T06:36:40.660Z,29.15
2023-04-08T06:40:40.475Z,29.73
2023-04-08T06:44:40.493Z,29.67
2023-04-08T06:48:40.505Z,28.65
2023-04-08T06:52:40.084Z,28
2023-04-08T06:56:40.961Z,28.95
2023-04-08T07:00:40.578Z,29.92
2023-04-08T07:04:40.629Z,26.2
2023-04-08T07:08:40.989Z,23.45
2023-04-08T07:12:40.222Z,23.7
2023-04-08T07:16:40.708Z,22.5
2023-04-08T07:20:40.447Z,23.7
2023-04-08T07:24:40.574Z,19.25
2023-04-08T07:28:40.420Z,16.9
2023-04-08T07:32:40.717Z,18.05
2023-04-08T07:36:40.523Z,18.1
2023-04-08T07:40:40.576Z,17.12
2023-04-08T07:44:40.513Z,17.05
2023-04-08T07:48:40.429Z,17.5
2023-04-08T07:52:40.155Z,18.08
2023-04-08T07:56:41.231Z,16.08
2023-04-08T08:00:40.595Z,16.85
2023-04-08T08:04:40.846Z,12.43
2023-04-08T08:08:40.530Z,15.6
2023-04-08T08:12:40.612Z,15
2023-04-08T08:16:40.346Z,16.17
2023-04-08T08:20:40.710Z,14
2023-04-08T08:24:40.615Z,14.9
2023-04-08T08:28:40.543Z,13.48
2023-04-08T08:32:40.372Z,13.55
2023-04-08T08:36:40.509Z,13.55
2023-04-08T08:40:40.893Z,11.68
2023-04-08T08:44:40.503Z,13.77
2023-04-08T08:48:40.761Z,14.52
2023-04-08T08:52:40.056Z,13.15
2023-04-08T08:56:40.587Z,10.95
2023-04-08T09:00:40.650Z,11.15
2023-04-08T09:04:40.489Z,10
2023-04-08T09:08:40.271Z,10.15
2023-04-08T09:12:40.422Z,11.32
2023-04-08T09:16:40.287Z,11.12
2023-04-08T09:20:39.333Z,10.15
2023-04-08T09:24:40.285Z,7.57
2023-04-08T09:28:41.337Z,7.53
2023-04-08T09:32:40.792Z,8.57
2023-04-08T09:36:41.212Z,8.57
2023-04-08T09:40:40.450Z,8.32
2023-04-08T09:44:40.440Z,8.07
2023-04-08T09:48:40.604Z,8.4
2023-04-08T09:52:40.001Z,9.4
2023-04-08T09:56:40.273Z,9.02
2023-04-08T10:00:40.747Z,8.93
2023-04-08T10:04:40.836Z,9.45
2023-04-08T10:08:40.422Z,10.88
2023-04-08T10:12:40.543Z,10.5
2023-04-08T10:16:40.543Z,9.8
2023-04-08T10:20:40.177Z,10.3
2023-04-08T10:24:40.995Z,10.93
2023-04-08T10:28:40.745Z,12.13
2023-04-08T10:32:40.882Z,12.27
2023-04-08T10:36:39.888Z,12.7
2023-04-08T10:40:40.520Z,14.02
2023-04-08T10:44:40.455Z,11.4
2023-04-08T10:48:41.131Z,9.93
2023-04-08T10:52:41.176Z,9.65
2023-04-08T10:56:39.692Z,8.73
2023-04-08T11:00:40.859Z,8.05
2023-04-08T11:04:40.823Z,8.02
2023-04-08T11:08:40.504Z,9.93
2023-04-08T11:12:40.524Z,10.38
2023-04-08T11:16:40.167Z,9.57
2023-04-08T11:20:41.193Z,10.18
2023-04-08T11:24:40.530Z,9.35
2023-04-08T11:28:40.437Z,9.13
2023-04-08T11:32:41.081Z,9.35
2023-04-08T11:36:40.772Z,9.7
2023-04-08T11:40:40.161Z,9.75
2023-04-08T11:44:39.238Z,10.13
2023-04-08T11:48:40.405Z,10.27
2023-04-08T11:52:40.441Z,10.63
2023-04-08T11:56:40.267Z,12.13
2023-04-08T12:00:40.644Z,11.05
2023-04-08T12:04:40.533Z,11
2023-04-08T12:08:40.445Z,13.48
2023-04-08T12:12:40.606Z,12.32
2023-04-08T12:16:40.601Z,11.75
2023-04-08T12:20:40.476Z,11.52
2023-04-08T12:24:40.528Z,13.82
2023-04-08T12:28:40.930Z,13.82
2023-04-08T12:32:41.009Z,12.52
2023-04-08T12:36:41.890Z,12.63
2023-04-08T12:40:40.412Z,15.13
2023-04-08T12:44:40.799Z,15.23
2023-04-08T12:48:40.956Z,13.45
2023-04-08T12:52:40.548Z,12.52
2023-04-08T12:56:40.210Z,15.57
2023-04-08T13:00:41.043Z,14.15
2023-04-08T13:04:40.813Z,14.75
2023-04-08T13:08:40.598Z,16.02
2023-04-08T13:12:40.583Z,15.15
2023-04-08T13:16:40.398Z,14.55
2023-04-08T13:20:40.412Z,13.45
2023-04-08T13:24:41.212Z,15.13
2023-04-08T13:28:53.802Z,13.6
2023-04-08T13:32:40.721Z,12.75
2023-04-08T13:36:40.649Z,13.27
2023-04-08T13:40:40.517Z,13.43
2023-04-08T13:44:40.471Z,13.55
2023-04-08T13:48:40.507Z,15.4
2023-04-08T13:52:39.622Z,13.2
2023-04-08T13:56:40.625Z,15.43
2023-04-08T14:00:39.873Z,14.87
2023-04-08T14:04:40.489Z,14.25
2023-04-08T14:08:40.773Z,14.8
2023-04-08T14:12:40.644Z,15.88
2023-04-08T14:16:40.361Z,15.77
2023-04-08T14:20:40.751Z,15.35
2023-04-08T14:24:41.169Z,14.52
2023-04-08T14:28:40.682Z,15.75
2023-04-08T14:32:40.589Z,15.82
2023-04-08T14:36:40.620Z,13.8
2023-04-08T14:40:40.589Z,13.62
2023-04-08T14:44:40.504Z,13.43
2023-04-08T14:48:40.795Z,14.07
2023-04-08T14:52:40.440Z,13.52
2023-04-08T14:56:39.662Z,14.05
2023-04-08T15:00:40.622Z,13.48
2023-04-08T15:04:40.795Z,13.82
2023-04-08T15:08:40.500Z,12.98
2023-04-08T15:12:40.474Z,12.8
2023-04-08T15:16:40.488Z,12.25
2023-04-08T15:20:41.203Z,12.9
2023-04-08T15:24:40.449Z,12.25
2023-04-08T15:28:40.514Z,13.18
2023-04-08T15:32:40.546Z,11.75
2023-04-08T15:36:40.591Z,11.95
2023-04-08T15:40:40.531Z,12.23
2023-04-08T15:44:40.497Z,12.43
2023-04-08T15:48:40.305Z,12.95
2023-04-08T15:52:41.169Z,11.95
2023-04-08T15:56:40.411Z,12.45
2023-04-08T16:00:40.660Z,11.85
2023-04-08T16:04:41.065Z,12.73
2023-04-08T16:08:40.137Z,11.57
2023-04-08T16:12:40.702Z,11.95
2023-04-08T16:16:40.222Z,12.45
2023-04-08T16:20:40.937Z,12.9
2023-04-08T16:24:40.802Z,12.05
2023-04-08T16:28:40.431Z,11.73
2023-04-08T16:32:40.649Z,13.75
2023-04-08T16:36:40.512Z,14.1
2023-04-08T16:40:40.505Z,14.32
2023-04-08T16:44:40.579Z,13.23
2023-04-08T16:48:40.478Z,14.38
2023-04-08T16:52:40.484Z,13.82
2023-04-08T16:56:41.164Z,14.77
2023-04-08T17:00:41.328Z,13.43
2023-04-08T17:04:40.639Z,14.07
2023-04-08T17:08:41.070Z,13.02
2023-04-08T17:12:40.830Z,13.77
2023-04-08T17:16:40.890Z,14.98
2023-04-08T17:20:41.221Z,14.63
2023-04-08T17:24:40.664Z,14.65
2023-04-08T17:28:40.508Z,14.63
2023-04-08T17:32:40.443Z,13.8
2023-04-08T17:36:40.562Z,14.45
2023-04-08T17:40:40.811Z,14.4
2023-04-08T17:44:40.552Z,13.85
2023-04-08T17:48:40.633Z,13.7
2023-04-08T17:52:41.191Z,14.48
2023-04-08T17:56:41.874Z,14.93
2023-04-08T18:00:40.596Z,16.27
2023-04-08T18:04:40.882Z,15.77
2023-04-08T18:08:40.572Z,15.82
2023-04-08T18:12:40.613Z,15.55
2023-04-08T18:16:40.430Z,17.95
2023-04-08T18:20:40.556Z,18.1
2023-04-08T18:24:40.495Z,16.1
2023-04-08T18:28:40.477Z,15.6
2023-04-08T18:32:40.400Z,15.32
2023-04-08T18:36:40.478Z,16.9
2023-04-08T18:40:40.995Z,17.73
2023-04-08T18:44:40.495Z,16.75
2023-04-08T18:48:40.490Z,16.77
2023-04-08T18:52:40.529Z,18.42
2023-04-08T18:56:40.536Z,16.85
2023-04-08T19:00:40.670Z,16.3
2023-04-08T19:04:40.462Z,18
2023-04-08T19:08:40.377Z,19.2
2023-04-08T19:12:40.747Z,19.63
2023-04-08T19:16:41.814Z,20.07
2023-04-08T19:20:40.527Z,21.23
2023-04-08T19:24:40.459Z,20.43
2023-04-08T19:28:40.527Z,19.93
2023-04-08T19:32:41.251Z,20.57
2023-04-08T19:36:40.497Z,21.43
2023-04-08T19:40:40.522Z,22.5
2023-04-08T19:44:40.455Z,23.83
2023-04-08T19:48:40.407Z,24.57
2023-04-08T19:52:40.747Z,25.97
2023-04-08T19:56:40.442Z,25.7
2023-04-08T20:00:40.466Z,26.67
2023-04-08T20:04:40.674Z,26.03
2023-04-08T20:08:40.823Z,26.1
2023-04-08T20:12:40.279Z,29.7
2023-04-08T20:16:40.487Z,27.07
2023-04-08T20:20:40.540Z,34.43
2023-04-08T20:24:40.373Z,36.07
2023-04-08T20:28:40.470Z,32.2
2023-04-08T20:32:40.475Z,32.87
2023-04-08T20:36:40.576Z,38.77
2023-04-08T20:40:40.420Z,38.1
2023-04-08T20:44:40.470Z,39.77
2023-04-08T20:48:40.864Z,44.3
2023-04-08T20:52:39.779Z,39.77
2023-04-08T20:56:40.549Z,42.67
2023-04-08T21:00:40.524Z,47.17
2023-04-08T21:04:40.305Z,45.53
2023-04-08T21:08:40.488Z,42.6
2023-04-08T21:12:40.572Z,46.87
2023-04-08T21:16:40.567Z,47.1
2023-04-08T21:20:40.499Z,43.47
2023-04-08T21:24:40.826Z,43.77
2023-04-08T21:28:40.874Z,41.1
2023-04-08T21:32:40.674Z,44.2
2023-04-08T21:36:40.506Z,43.13
2023-04-08T21:40:40.532Z,46.87
2023-04-08T21:44:40.302Z,44.03
2023-04-08T21:48:40.546Z,45.3
2023-04-08T21:52:42.981Z,46.3
2023-04-08T21:56:39.821Z,45.03
2023-04-08T22:00:40.470Z,48.47
2023-04-08T22:16:40.422Z,54.97
2023-04-08T22:20:40.518Z,50.57
2023-04-08T22:24:40.527Z,52
2023-04-08T22:28:40.476Z,55.2
2023-04-08T22:32:40.555Z,56.6
2023-04-08T22:36:40.272Z,55.37
2023-04-08T22:40:40.488Z,51.9
2023-04-08T22:44:40.370Z,51.3
2023-04-08T22:48:40.418Z,51.2
2023-04-08T22:52:40.416Z,52.77
2023-04-08T22:56:40.486Z,50.1
2023-04-08T23:00:40.265Z,52.93
2023-04-08T23:04:40.935Z,50.07
2023-04-08T23:08:40.503Z,51.73
2023-04-08T23:12:40.717Z,52
2023-04-08T23:16:40.562Z,52.33
2023-04-08T23:20:40.468Z,55.1
2023-04-08T23:24:40.449Z,51.83
2023-04-08T23:28:39.534Z,49.17
2023-04-08T23:32:40.875Z,50.1
2023-04-08T23:36:40.418Z,53.53
2023-04-08T23:40:39.844Z,54.87
2023-04-08T23:44:40.218Z,58.97
2023-04-08T23:48:40.683Z,62.7
2023-04-08T23:52:40.535Z,58.9
2023-04-08T23:56:40.839Z,60.5
